Terminal Aerodrome Forecast
Issued by NWS

Home | Current Version | Previous Version | Text Only | Print | Product List | Glossary On
Versions: 1 2 3 4 5 6 7 8 9 10 11 12 13 14 15 16 17 18 19 20 21 22 23 24 25 26 27 28 29 30 31 32
000
FTUS41 KBOX 022321
TAFHYA
TAF
KHYA 022321Z 0300/0324 01012G21KT P6SM OVC009
     FM030200 01011G20KT 5SM BR OVC020
     FM030400 01011G19KT 6SM BR BKN025
     FM030600 01009KT P6SM BKN035
     FM031300 02010KT P6SM BKN200=

USA.gov is the U.S. government's official web portal to all federal, state and local government web resources and services.